LFBA/AGF METAR and TAF weather

Enter ICAO airport designator
Station Type Date Time Source
LFBA METAR 2018/12/11 23:00 UTC NOAA

LFBA 112300Z AUTO 30001KT 3700 BR NSC 01/M00 Q1021


Station Type Date Time Source
LFBA Decoded METAR 2018/12/11 23:00 UTC NOAA

Agen, France (LFBA) 44-11N 000-36E 60M
Dec 11, 2018 - 06:00 PM EST / 2018.12.11 2300 UTC
Wind: from the WNW (300 degrees) at 1 MPH (1 KT):0
Visibility: 2 mile(s):0
Weather: mist
Temperature: 33 F (1 C)
Dew Point: 32 F (0 C)
Relative Humidity: 93%
Pressure (altimeter): 30.15 in. Hg (1021 hPa)
ob: LFBA 112300Z AUTO 30001KT 3700 BR NSC 01/M00 Q1021
cycle: 23

Station Type Date Time Source
LFBA TAF 2014/12/22 20:03 UTC NOAA

TAF
AMD TAF
AMD LFBA 222037Z 2220/2224 12007KT 0400 FG VV///
TEMPO 2220/2224 0100 PROB30
TEMPO 2222/2224 FZFG


Example: see airport list